Time;durP1;ratioP1;P1;durP2;ratioP2;P2;SDS_P1;SDS_P2;PMS_P1;PMS_P2;Temp;Humidity;BMP_temperature;BMP_pressure;BME280_temperature;BME280_humidity;BME280_pressure;Samples;Min_cycle;Max_cycle;Signal;HPM_P1;HPM_P2
2022/05/16 00:02:17;;;;;;;11.23;3.33;;;;;;;17.68;50.08;101146.81;4947581;28;20062;-83
2022/05/16 00:04:45;;;;;;;12.23;3.70;;;;;;;17.65;49.97;101150.88;4979722;28;20532;-83
2022/05/16 00:07:11;;;;;;;8.70;3.40;;;;;;;17.62;50.39;101156.06;4979547;28;20026;-83
2022/05/16 00:09:37;;;;;;;12.75;3.90;;;;;;;17.56;50.36;101146.13;4979392;28;20034;-83
2022/05/16 00:12:03;;;;;;;7.50;3.23;;;;;;;17.55;50.70;101150.75;4996987;28;20032;-83
2022/05/16 00:14:29;;;;;;;10.88;3.10;;;;;;;17.51;51.37;101150.44;4979785;28;20478;-83
2022/05/16 00:16:54;;;;;;;15.93;3.20;;;;;;;17.49;51.71;101149.03;4979470;28;20045;-84
2022/05/16 00:19:20;;;;;;;14.57;3.50;;;;;;;17.40;51.10;101134.94;4947401;28;20116;-83
2022/05/16 00:21:45;;;;;;;9.48;3.20;;;;;;;17.39;51.17;101136.03;4978755;28;20073;-83
2022/05/16 00:24:10;;;;;;;7.87;3.50;;;;;;;17.35;51.13;101132.16;4979013;28;20405;-83
2022/05/16 00:26:36;;;;;;;7.67;3.30;;;;;;;17.34;51.72;101138.69;4947329;28;20030;-83
2022/05/16 00:29:02;;;;;;;14.67;3.80;;;;;;;17.29;51.95;101135.91;4996600;28;20031;-83
2022/05/16 00:31:28;;;;;;;9.40;3.53;;;;;;;17.26;52.09;101126.25;4996500;28;20030;-84
2022/05/16 00:33:53;;;;;;;10.57;3.63;;;;;;;17.23;52.60;101128.66;4996372;28;20030;-83
2022/05/16 00:36:18;;;;;;;10.30;3.80;;;;;;;17.24;52.45;101135.81;4979066;28;20053;-83
2022/05/16 00:38:47;;;;;;;12.10;3.60;;;;;;;17.20;51.80;101124.53;4961854;28;20433;-83
2022/05/16 00:41:12;;;;;;;10.77;3.53;;;;;;;17.19;52.06;101129.19;4963303;28;20097;-83
2022/05/16 00:43:52;;;;;;;8.87;3.70;;;;;;;17.15;51.58;101125.28;4962852;28;20479;-83
2022/05/16 00:46:19;;;;;;;11.43;4.00;;;;;;;17.16;52.06;101126.13;4978599;28;20022;-83
2022/05/16 00:48:45;;;;;;;13.75;3.90;;;;;;;17.09;53.10;101130.94;4978621;28;20485;-83
2022/05/16 00:51:27;;;;;;;13.67;3.90;;;;;;;17.08;51.68;101132.88;4962231;28;20038;-84
2022/05/16 00:53:56;;;;;;;11.82;4.05;;;;;;;17.05;53.29;101130.66;4978790;28;20434;-83
2022/05/16 00:56:24;;;;;;;12.10;3.75;;;;;;;17.04;53.30;101131.72;4978562;28;20121;-83
2022/05/16 00:58:50;;;;;;;16.10;4.10;;;;;;;17.00;53.81;101125.88;4978411;28;20034;-83
2022/05/16 01:06:47;;;;;;;13.18;3.28;;;;;;;16.85;53.46;101114.69;4996325;28;20454;-83
2022/05/16 01:09:12;;;;;;;9.45;3.47;;;;;;;16.80;54.21;101109.97;4978341;28;20057;-83
2022/05/16 01:11:38;;;;;;;12.30;3.77;;;;;;;16.77;54.03;101118.69;4962153;28;20040;-83
2022/05/16 01:14:04;;;;;;;10.48;3.63;;;;;;;16.67;54.05;101108.38;4978673;28;20110;-83
2022/05/16 01:16:29;;;;;;;7.53;3.13;;;;;;;16.69;54.82;101112.78;4996082;28;20046;-83
2022/05/16 01:18:55;;;;;;;10.10;3.63;;;;;;;16.66;54.39;101116.84;4978424;28;20474;-83
2022/05/16 01:21:28;;;;;;;12.73;3.87;;;;;;;16.63;54.68;101120.91;4977537;28;20281;-83
2022/05/16 01:24:09;;;;;;;12.07;3.72;;;;;;;16.62;53.64;101124.75;4977901;28;20058;-83
2022/05/16 01:26:36;;;;;;;16.10;3.70;;;;;;;16.61;54.96;101125.00;4995627;28;20041;-83
2022/05/16 01:29:02;;;;;;;10.50;3.80;;;;;;;16.60;55.10;101128.81;4977801;28;20031;-83
2022/05/16 01:31:28;;;;;;;9.47;3.50;;;;;;;16.57;55.31;101123.84;4995529;28;20117;-83
2022/05/16 01:33:54;;;;;;;13.25;3.47;;;;;;;16.52;55.57;101116.38;4961920;28;20054;-83
2022/05/16 01:36:20;;;;;;;11.85;3.88;;;;;;;16.47;55.79;101117.09;4977766;28;20031;-83
2022/05/16 01:38:45;;;;;;;11.97;4.27;;;;;;;16.44;55.55;101117.59;4995450;28;20033;-83
2022/05/16 01:41:17;;;;;;;11.70;3.77;;;;;;;16.44;55.89;101119.50;4961824;28;20042;-83
2022/05/16 01:43:49;;;;;;;12.40;3.65;;;;;;;16.44;55.85;101119.50;4995544;28;20081;-83
2022/05/16 01:46:21;;;;;;;11.50;3.40;;;;;;;16.43;55.63;101104.13;4995385;28;20148;-83
2022/05/16 01:48:47;;;;;;;11.23;3.92;;;;;;;16.42;55.57;101108.81;4994752;28;20467;-83
2022/05/16 01:51:13;;;;;;;6.80;3.20;;;;;;;16.43;56.20;101096.78;4977631;28;20034;-84
2022/05/16 01:53:41;;;;;;;12.82;4.05;;;;;;;16.45;55.93;101102.81;4995126;28;20081;-83
2022/05/16 01:56:07;;;;;;;13.43;3.88;;;;;;;16.45;56.03;101102.00;4994886;28;20058;-83
2022/05/16 01:58:33;;;;;;;12.18;4.05;;;;;;;16.46;56.40;101101.75;4994956;28;20133;-83
2022/05/16 02:00:58;;;;;;;16.83;3.87;;;;;;;16.46;56.28;101092.69;4977502;28;20462;-83
2022/05/16 02:03:24;;;;;;;11.82;3.70;;;;;;;16.45;56.21;101089.13;4977417;28;20058;-83
2022/05/16 02:05:50;;;;;;;7.93;3.60;;;;;;;16.48;56.41;101088.63;4977451;28;20031;-83
2022/05/16 02:08:16;;;;;;;10.77;3.72;;;;;;;16.48;56.71;101087.81;4961268;28;20486;-83
2022/05/16 02:10:45;;;;;;;10.73;3.22;;;;;;;16.45;56.80;101086.38;4977234;28;20034;-83
2022/05/16 02:13:11;;;;;;;10.13;4.30;;;;;;;16.41;56.42;101090.69;4994703;28;20034;-83
2022/05/16 02:15:39;;;;;;;12.48;4.00;;;;;;;16.38;57.05;101077.50;4977295;28;20029;-83
2022/05/16 02:18:06;;;;;;;11.30;3.92;;;;;;;16.38;56.68;101080.25;4977296;28;20061;-84
2022/05/16 02:20:32;;;;;;;10.48;3.50;;;;;;;16.36;56.95;101079.69;4961378;28;20181;-83
2022/05/16 02:25:46;;;;;;;11.82;3.78;;;;;;;16.34;56.83;101078.25;4980203;28;20118;-84
2022/05/16 02:28:16;;;;;;;11.13;3.70;;;;;;;16.34;57.61;101073.59;4977124;28;20036;-84
2022/05/16 02:30:43;;;;;;;9.63;4.00;;;;;;;16.30;57.18;101070.53;4976689;28;20037;-83
2022/05/16 02:33:10;;;;;;;13.70;4.32;;;;;;;16.31;57.74;101069.47;4994665;28;20053;-83
2022/05/16 02:35:35;;;;;;;11.00;3.90;;;;;;;16.29;57.87;101074.34;4994415;28;20034;-83
2022/05/16 02:38:02;;;;;;;9.15;3.80;;;;;;;16.30;57.70;101058.78;4976933;28;20501;-83
2022/05/16 02:40:29;;;;;;;10.80;3.88;;;;;;;16.28;57.53;101059.03;4976739;28;20541;-83
2022/05/16 02:42:56;;;;;;;8.70;3.67;;;;;;;16.29;57.56;101054.38;4994225;28;20064;-83
2022/05/16 02:45:23;;;;;;;12.23;3.67;;;;;;;16.26;57.74;101055.69;4977119;28;20066;-84
2022/05/16 02:47:49;;;;;;;8.45;3.65;;;;;;;16.24;57.96;101051.53;4977012;28;20061;-83
2022/05/16 02:50:15;;;;;;;11.50;4.10;;;;;;;16.24;57.55;101048.78;4994100;28;20066;-83
2022/05/16 02:52:41;;;;;;;9.63;3.67;;;;;;;16.22;57.93;101051.78;4976551;28;20031;-83
2022/05/16 02:55:07;;;;;;;10.13;3.40;;;;;;;16.22;57.81;101050.97;4960666;28;20037;-83
2022/05/16 02:57:32;;;;;;;9.35;3.97;;;;;;;16.19;58.04;101049.53;4976673;28;20034;-84
2022/05/16 02:59:58;;;;;;;6.87;3.60;;;;;;;16.19;58.00;101040.50;4976662;28;20038;-83
2022/05/16 03:02:24;;;;;;;10.13;3.75;;;;;;;16.19;57.96;101037.78;4998420;28;20030;-83
2022/05/16 03:04:51;;;;;;;10.10;3.95;;;;;;;16.17;58.08;101035.28;4948645;28;20037;-83
2022/05/16 03:07:17;;;;;;;10.20;3.35;;;;;;;16.12;57.83;101033.28;4980622;28;20037;-83
2022/05/16 03:09:42;;;;;;;7.47;3.10;;;;;;;16.11;58.16;101033.53;4998026;28;20117;-83
2022/05/16 03:12:08;;;;;;;8.97;3.73;;;;;;;16.09;58.48;101030.22;4980318;28;20467;-83
2022/05/16 03:14:35;;;;;;;9.67;4.03;;;;;;;16.10;58.37;101040.09;4998017;28;20281;-83
2022/05/16 03:17:00;;;;;;;8.38;3.80;;;;;;;16.07;58.47;101037.84;4981321;28;20038;-83
2022/05/16 03:19:26;;;;;;;12.70;3.72;;;;;;;16.07;58.61;101041.41;4997880;28;20517;-83
2022/05/16 03:21:51;;;;;;;11.23;3.47;;;;;;;16.05;58.71;101038.09;4979948;28;20386;-83
2022/05/16 03:24:17;;;;;;;7.53;3.30;;;;;;;16.05;59.01;101037.28;4964055;28;20086;-83
2022/05/16 03:26:42;;;;;;;7.07;3.80;;;;;;;16.04;58.38;101032.88;4997756;28;20033;-83
2022/05/16 03:29:11;;;;;;;6.17;3.70;;;;;;;16.03;58.89;101037.50;4948614;28;20435;-83
2022/05/16 03:31:36;;;;;;;10.20;3.63;;;;;;;16.04;58.60;101041.91;4980959;28;20023;-83
2022/05/16 03:34:03;;;;;;;9.25;3.60;;;;;;;16.03;58.84;101045.69;4998017;28;20377;-83
2022/05/16 03:36:28;;;;;;;9.20;3.40;;;;;;;16.05;58.89;101043.56;4980385;28;20045;-83
2022/05/16 03:41:37;;;;;;;9.93;3.55;;;;;;;16.01;58.92;101039.66;4969331;28;20129;-83
2022/05/16 03:44:03;;;;;;;5.90;3.53;;;;;;;16.03;58.84;101042.97;4980158;28;20062;-83
2022/05/16 03:46:28;;;;;;;6.50;3.10;;;;;;;16.02;58.90;101037.75;4980002;28;20035;-83
2022/05/16 03:48:54;;;;;;;8.10;3.53;;;;;;;16.00;59.50;101035.25;4979894;28;20034;-83
2022/05/16 03:51:19;;;;;;;7.33;3.67;;;;;;;16.01;58.73;101041.56;4963421;28;20348;-85
2022/05/16 03:53:47;;;;;;;10.47;3.50;;;;;;;16.03;59.15;101040.22;4979852;28;20081;-84
2022/05/16 03:56:22;;;;;;;10.07;3.65;;;;;;;16.05;59.72;101038.09;4980164;28;20039;-83
2022/05/16 03:58:48;;;;;;;6.40;3.63;;;;;;;16.01;60.70;101038.84;4979688;28;20031;-83
2022/05/16 04:01:14;;;;;;;9.33;3.70;;;;;;;16.01;61.92;101028.72;4963446;28;20032;-83
2022/05/16 04:03:40;;;;;;;6.53;3.20;;;;;;;16.01;61.76;101025.97;4979474;28;20031;-83
2022/05/16 04:06:05;;;;;;;6.70;3.40;;;;;;;16.02;60.15;101035.00;4979470;28;20068;-83
2022/05/16 04:08:32;;;;;;;7.20;3.33;;;;;;;16.06;61.53;101033.44;4996815;28;20398;-83
2022/05/16 04:10:59;;;;;;;13.57;3.80;;;;;;;16.06;61.57;101034.28;4996694;28;20529;-83
2022/05/16 04:13:25;;;;;;;9.75;4.18;;;;;;;16.08;60.43;101034.84;4979644;28;20099;-83
2022/05/16 04:15:50;;;;;;;9.52;4.03;;;;;;;16.09;61.54;101035.69;4963349;28;20125;-83
2022/05/16 04:18:15;;;;;;;8.17;3.50;;;;;;;16.11;60.18;101047.22;4947438;28;20113;-83
2022/05/16 04:20:41;;;;;;;7.37;3.60;;;;;;;16.12;60.17;101048.88;4963366;28;20044;-83
2022/05/16 04:23:07;;;;;;;5.93;3.67;;;;;;;16.15;59.61;101056.63;4978432;28;20058;-83
2022/05/16 04:25:33;;;;;;;14.40;3.97;;;;;;;16.19;60.39;101043.25;4979264;28;20478;-83
2022/05/16 04:27:58;;;;;;;9.23;3.67;;;;;;;16.21;60.35;101050.13;4996778;28;20088;-83
2022/05/16 04:30:24;;;;;;;8.30;3.87;;;;;;;16.24;60.57;101048.78;4963006;28;20030;-83
2022/05/16 04:32:49;;;;;;;11.53;4.33;;;;;;;16.28;59.94;101047.22;4979157;28;20065;-83
2022/05/16 04:35:15;;;;;;;8.90;3.85;;;;;;;16.31;58.91;101050.31;4963091;28;20368;-83
2022/05/16 04:37:40;;;;;;;9.47;3.63;;;;;;;16.37;58.92;101040.28;4979106;28;20038;-83
2022/05/16 04:40:09;;;;;;;7.17;3.73;;;;;;;16.46;58.89;101046.13;4962784;28;20479;-83
2022/05/16 04:42:40;;;;;;;7.85;3.53;;;;;;;16.53;58.17;101048.72;4996404;28;20033;-83
2022/05/16 04:45:11;;;;;;;7.07;3.60;;;;;;;16.60;58.38;101050.19;4980011;28;20041;-83
2022/05/16 04:47:36;;;;;;;8.30;4.25;;;;;;;16.68;58.04;101046.19;4996369;28;20058;-83
2022/05/16 04:50:03;;;;;;;9.07;3.60;;;;;;;16.77;57.96;101049.34;4962472;28;20070;-83
2022/05/16 04:52:28;;;;;;;8.57;3.88;;;;;;;16.87;57.90;101051.41;4977881;28;20371;-83
2022/05/16 04:54:54;;;;;;;8.97;4.07;;;;;;;16.98;57.29;101045.03;4962663;28;20044;-83
2022/05/16 04:57:20;;;;;;;9.65;4.25;;;;;;;17.08;56.92;101058.88;4962598;28;20439;-83
2022/05/16 04:59:49;;;;;;;8.27;3.80;;;;;;;17.19;56.26;101060.63;4962704;28;20068;-83
2022/05/16 05:02:16;;;;;;;11.52;4.20;;;;;;;17.35;56.14;101061.66;4962993;28;20030;-83
2022/05/16 05:04:41;;;;;;;9.68;3.78;;;;;;;17.50;56.20;101060.19;4978517;28;20037;-83
2022/05/16 05:07:07;;;;;;;10.47;3.80;;;;;;;17.63;55.35;101051.56;4978730;28;20035;-83
2022/05/16 05:14:31;;;;;;;9.90;4.03;;;;;;;17.80;55.07;101054.19;4946321;28;20030;-84
2022/05/16 05:15:01;;;;;;;7.75;3.72;;;;;;;18.10;53.70;101063.88;4995728;28;20049;-84
2022/05/16 05:17:27;;;;;;;5.18;3.45;;;;;;;18.12;53.81;101064.41;4977888;28;20137;-85
2022/05/16 05:19:52;;;;;;;8.90;3.70;;;;;;;18.23;53.90;101055.19;4978265;28;20045;-83
2022/05/16 05:22:17;;;;;;;9.57;3.50;;;;;;;18.35;53.87;101060.50;4961570;28;20482;-86
2022/05/16 05:24:43;;;;;;;9.80;3.63;;;;;;;18.40;53.70;101051.47;4961194;28;20038;-83
2022/05/16 05:27:08;;;;;;;9.20;3.70;;;;;;;18.49;53.28;101060.88;4978085;28;20378;-84
2022/05/16 05:29:34;;;;;;;11.00;3.93;;;;;;;18.60;53.20;101050.78;4977832;28;20030;-83
2022/05/16 05:31:59;;;;;;;7.57;3.47;;;;;;;18.66;53.45;101043.41;4977568;28;20478;-83
2022/05/16 05:34:25;;;;;;;7.17;3.73;;;;;;;18.75;52.76;101045.41;4961688;28;20504;-83
2022/05/16 05:36:51;;;;;;;9.52;3.63;;;;;;;18.83;52.59;101052.31;4961894;28;20038;-82
2022/05/16 05:39:17;;;;;;;11.50;3.40;;;;;;;18.88;52.29;101055.13;4995254;28;20038;-83
2022/05/16 05:41:42;;;;;;;5.82;3.40;;;;;;;18.88;52.16;101063.38;4977917;28;20371;-84
2022/05/16 05:44:08;;;;;;;9.50;3.40;;;;;;;18.85;52.42;101072.13;4961582;28;20129;-84
2022/05/16 05:46:35;;;;;;;10.77;3.90;;;;;;;18.90;52.43;101079.59;4977660;28;20065;-84
2022/05/16 05:49:02;;;;;;;8.35;3.47;;;;;;;18.93;52.72;101074.38;4977740;28;20105;-83
2022/05/16 05:51:27;;;;;;;7.80;3.20;;;;;;;18.98;52.35;101075.50;4945103;28;20042;-84
2022/05/16 05:53:53;;;;;;;7.97;3.43;;;;;;;18.99;51.89;101077.19;4994963;28;20113;-84
2022/05/16 05:56:18;;;;;;;5.07;3.07;;;;;;;19.02;52.18;101088.47;4961719;28;20030;-83
2022/05/16 05:58:46;;;;;;;7.97;3.70;;;;;;;19.06;52.38;101080.50;4961311;28;20034;-83
2022/05/16 06:01:11;;;;;;;6.00;3.50;;;;;;;19.16;52.10;101094.31;4977074;28;20470;-83
2022/05/16 06:03:37;;;;;;;10.30;3.58;;;;;;;19.23;51.82;101083.06;4977309;28;20069;-83
2022/05/16 06:06:03;;;;;;;7.97;3.70;;;;;;;19.34;51.79;101084.78;4994827;28;20031;-83
2022/05/16 06:08:28;;;;;;;4.90;3.60;;;;;;;19.37;51.29;101078.75;4994312;28;20034;-83
2022/05/16 06:10:56;;;;;;;18.07;3.60;;;;;;;19.35;51.29;101088.34;4976865;28;20493;-84
2022/05/16 06:13:22;;;;;;;9.13;3.97;;;;;;;19.39;51.85;101094.97;4976610;28;20065;-83
2022/05/16 06:15:48;;;;;;;10.98;3.72;;;;;;;19.28;51.23;101097.69;4976848;28;20069;-83
2022/05/16 06:18:13;;;;;;;9.60;3.70;;;;;;;19.24;52.05;101092.97;4976740;28;20117;-83
2022/05/16 06:20:39;;;;;;;9.40;3.20;;;;;;;19.27;52.01;101101.50;4976985;28;20038;-83
2022/05/16 06:23:05;;;;;;;9.77;3.40;;;;;;;19.23;52.20;101100.38;4946411;28;20469;-83
2022/05/16 06:25:42;;;;;;;6.57;3.10;;;;;;;19.28;52.13;101111.44;4979463;28;20304;-83
2022/05/16 06:28:21;;;;;;;9.35;3.17;;;;;;;19.36;52.27;101098.25;4995861;28;20033;-82
2022/05/16 06:30:48;;;;;;;14.88;3.50;;;;;;;19.40;51.46;101116.72;4996060;28;20421;-82
2022/05/16 06:33:15;;;;;;;10.88;3.55;;;;;;;19.34;52.10;101116.94;4996294;28;20490;-82
2022/05/16 06:35:41;;;;;;;12.63;4.00;;;;;;;19.23;51.92;101108.63;4996083;28;20458;-82
2022/05/16 06:38:12;;;;;;;10.33;3.63;;;;;;;19.22;52.80;101117.16;4996223;28;20042;-82
2022/05/16 06:40:40;;;;;;;12.88;4.10;;;;;;;19.25;52.68;101114.72;5013801;28;20038;-82
2022/05/16 06:43:06;;;;;;;9.25;3.80;;;;;;;19.32;52.93;101114.47;4979942;28;20116;-81
2022/05/16 06:45:31;;;;;;;9.75;3.80;;;;;;;19.41;52.54;101114.78;4963718;28;20041;-82
2022/05/16 06:47:57;;;;;;;9.63;3.47;;;;;;;19.43;53.30;101110.69;4963619;28;20045;-81
2022/05/16 06:50:23;;;;;;;9.50;3.70;;;;;;;19.49;52.97;101113.44;4963351;28;20033;-82
2022/05/16 06:52:49;;;;;;;13.20;4.05;;;;;;;19.63;52.90;101114.59;4978761;28;20057;-82
2022/05/16 06:55:15;;;;;;;10.48;3.70;;;;;;;19.72;52.90;101126.72;4995189;28;20064;-82
2022/05/16 06:57:41;;;;;;;13.17;3.77;;;;;;;19.67;52.41;101123.97;5012981;28;20120;-82
2022/05/16 07:00:07;;;;;;;9.75;3.20;;;;;;;19.79;52.86;101123.75;5013510;28;20533;-82
2022/05/16 07:02:33;;;;;;;11.98;3.92;;;;;;;19.87;52.23;101128.75;5013768;28;20529;-82
2022/05/16 07:04:59;;;;;;;14.15;3.83;;;;;;;20.00;52.71;101129.31;5013613;28;20038;-82
2022/05/16 07:07:25;;;;;;;17.07;3.90;;;;;;;20.18;51.96;101126.03;4963575;28;20038;-82
2022/05/16 07:09:50;;;;;;;13.27;3.83;;;;;;;20.40;51.81;101128.53;4979212;28;20088;-82
2022/05/16 07:12:16;;;;;;;9.17;3.43;;;;;;;20.60;51.54;101137.94;5013104;28;20357;-82
2022/05/16 07:14:42;;;;;;;12.50;3.50;;;;;;;20.70;51.59;101128.84;4979940;28;20026;-82
2022/05/16 07:17:08;;;;;;;12.15;3.30;;;;;;;20.88;51.05;101135.75;5013667;28;20413;-83
2022/05/16 07:19:37;;;;;;;13.23;3.60;;;;;;;20.90;50.82;101137.09;5013350;28;20034;-82
2022/05/16 07:22:11;;;;;;;10.77;3.70;;;;;;;20.83;51.06;101136.56;4995082;28;20482;-82
2022/05/16 07:24:40;;;;;;;16.75;4.10;;;;;;;20.93;51.33;101138.50;5013457;28;20054;-83
2022/05/16 07:29:51;;;;;;;26.08;4.10;;;;;;;21.31;50.88;101138.97;5013443;28;20048;-83
2022/05/16 07:32:16;;;;;;;23.13;3.77;;;;;;;21.48;50.92;101142.22;4979520;28;20116;-83
2022/05/16 07:34:42;;;;;;;11.83;3.77;;;;;;;21.56;50.49;101143.59;4995527;28;20041;-83
2022/05/16 07:37:08;;;;;;;9.30;3.15;;;;;;;21.61;50.63;101140.78;4995435;28;20529;-84
2022/05/16 07:39:38;;;;;;;17.43;3.30;;;;;;;21.69;50.89;101142.16;4979760;28;20385;-84
2022/05/16 07:42:07;;;;;;;15.15;3.28;;;;;;;21.75;50.55;101149.31;4996365;28;20378;-84
2022/05/16 07:44:36;;;;;;;9.18;3.35;;;;;;;21.78;50.38;101148.75;4995561;28;20021;-84
2022/05/16 07:47:03;;;;;;;7.88;3.00;;;;;;;21.78;50.56;101153.44;4996799;28;20465;-84
2022/05/16 07:49:28;;;;;;;7.10;3.15;;;;;;;21.85;50.57;101154.78;4999381;28;20038;-84
2022/05/16 07:51:54;;;;;;;8.47;3.00;;;;;;;21.79;50.91;101153.16;4999318;28;20519;-84
2022/05/16 07:54:19;;;;;;;13.57;3.17;;;;;;;21.63;51.09;101160.69;4967413;28;20034;-83
2022/05/16 07:56:45;;;;;;;8.10;3.15;;;;;;;21.52;51.88;101161.81;4983171;28;20125;-86
2022/05/16 07:59:11;;;;;;;5.95;2.95;;;;;;;21.42;52.06;101161.81;4998987;28;20026;-88
2022/05/16 08:01:37;;;;;;;9.40;3.30;;;;;;;21.31;52.25;101161.03;4982904;28;20041;-87
2022/05/16 08:04:06;;;;;;;7.72;2.90;;;;;;;21.29;52.81;101154.94;4999134;28;20088;-86
2022/05/16 08:06:33;;;;;;;10.10;3.20;;;;;;;21.26;53.03;101161.03;5016486;28;20093;-87
2022/05/16 08:11:46;;;;;;;8.50;3.00;;;;;;;21.20;53.64;101161.06;5017053;28;20100;-88
2022/05/16 08:14:12;;;;;;;9.73;3.20;;;;;;;21.24;53.54;101166.84;4999103;28;20120;-87
2022/05/16 08:16:38;;;;;;;10.88;3.28;;;;;;;21.29;53.71;101160.47;5016263;28;20029;-87
2022/05/16 08:19:04;;;;;;;8.07;3.07;;;;;;;21.34;53.31;101163.22;4998819;28;20385;-86
2022/05/16 08:21:32;;;;;;;9.30;2.87;;;;;;;21.54;52.77;101174.25;4995531;28;20497;-87
2022/05/16 08:24:07;;;;;;;5.60;2.60;;;;;;;21.80;52.13;101181.59;4996321;28;20065;-86
2022/05/16 08:26:33;;;;;;;12.07;2.85;;;;;;;21.99;50.85;101179.03;5012570;28;20045;-86
2022/05/16 08:28:59;;;;;;;8.85;3.08;;;;;;;22.18;51.12;101171.72;5015627;28;20042;-87
2022/05/16 08:31:28;;;;;;;12.07;2.97;;;;;;;22.35;50.82;101173.28;5013800;28;20096;-88
2022/05/16 08:33:54;;;;;;;12.13;3.40;;;;;;;22.52;50.25;101175.66;4998014;28;20025;-87
2022/05/16 08:41:54;;;;;;;8.10;2.90;;;;;;;22.82;48.95;101179.28;5014614;28;20493;-85
2022/05/16 08:44:36;;;;;;;7.38;2.80;;;;;;;22.92;49.19;101174.47;4998444;28;20034;-87
2022/05/16 08:47:14;;;;;;;9.25;2.92;;;;;;;23.03;49.09;101168.84;4998578;28;20022;-84
2022/05/16 08:49:52;;;;;;;7.25;2.67;;;;;;;23.18;49.25;101168.75;4998230;28;20029;-83
2022/05/16 08:52:29;;;;;;;7.97;2.95;;;;;;;23.29;48.48;101170.25;5013163;28;20099;-84
2022/05/16 08:54:59;;;;;;;9.27;2.70;;;;;;;23.42;48.98;101165.16;5015684;28;20105;-84
2022/05/16 08:57:32;;;;;;;8.50;2.80;;;;;;;23.54;48.34;101173.06;4997901;28;20033;-84
2022/05/16 09:00:07;;;;;;;8.73;2.97;;;;;;;23.67;47.50;101164.03;5015107;28;20029;-84
2022/05/16 09:02:34;;;;;;;6.22;2.60;;;;;;;23.76;47.05;101175.28;5013691;28;20355;-84
2022/05/16 09:05:15;;;;;;;5.45;2.42;;;;;;;23.89;47.35;101157.13;4996397;28;20026;-85
2022/05/16 09:07:47;;;;;;;7.13;2.77;;;;;;;24.01;46.10;101167.78;4997405;28;20033;-85
2022/05/16 09:10:21;;;;;;;8.55;2.60;;;;;;;24.16;46.00;101175.84;4997489;28;20092;-84
2022/05/16 09:13:14;;;;;;;10.13;3.15;;;;;;;24.34;45.58;101177.81;4992335;28;21122;-85
2022/05/16 09:16:01;;;;;;;6.13;2.58;;;;;;;24.40;45.03;101174.94;4991006;28;20409;-85
2022/05/16 09:19:13;;;;;;;11.43;2.90;;;;;;;24.40;45.83;101173.00;4978253;28;20038;-85
2022/05/16 09:22:03;;;;;;;6.17;2.70;;;;;;;24.43;45.99;101172.38;4900513;29;20036;-86
2022/05/16 09:24:35;;;;;;;15.95;3.08;;;;;;;24.43;45.63;101174.34;4977839;28;20062;-86
2022/05/16 09:28:34;;;;;;;12.10;3.33;;;;;;;24.48;45.94;101172.31;4978433;28;20051;-86
2022/05/16 09:30:03;;;;;;;7.47;2.80;;;;;;;24.64;45.35;101181.25;4994810;28;20035;-86
2022/05/16 09:32:33;;;;;;;7.65;2.70;;;;;;;24.72;45.58;101174.19;4992461;28;20041;-86
2022/05/16 09:34:59;;;;;;;11.07;3.00;;;;;;;24.80;44.92;101180.97;4997365;28;20034;-86
2022/05/16 09:37:25;;;;;;;8.73;2.90;;;;;;;24.90;45.71;101177.22;4995186;28;20026;-86
2022/05/16 09:39:53;;;;;;;9.37;2.70;;;;;;;25.15;44.64;101170.38;4964942;28;20504;-86
2022/05/16 09:42:33;;;;;;;6.07;2.65;;;;;;;25.25;43.91;101183.25;4997099;28;20100;-86
2022/05/16 09:45:02;;;;;;;7.75;3.17;;;;;;;25.29;42.96;101179.56;4997467;28;20038;-87
2022/05/16 09:47:28;;;;;;;9.05;3.25;;;;;;;25.48;42.99;101195.31;4997197;28;20044;-86
2022/05/16 09:50:02;;;;;;;6.83;2.90;;;;;;;25.74;42.49;101193.66;4997287;28;20421;-86
2022/05/16 09:52:33;;;;;;;4.85;2.97;;;;;;;26.08;41.98;101200.75;5013792;28;20088;-86
2022/05/16 09:55:05;;;;;;;7.07;2.75;;;;;;;26.25;40.97;101211.22;4997261;28;20049;-86
2022/05/16 09:57:38;;;;;;;7.97;3.27;;;;;;;26.52;40.98;101211.44;4997167;28;20045;-86
2022/05/16 10:00:40;;;;;;;8.95;3.67;;;;;;;26.65;41.08;101229.22;5007878;28;20120;-87
2022/05/16 10:03:29;;;;;;;16.58;3.60;;;;;;;26.85;41.11;101233.50;4955133;28;20033;-87
2022/05/16 10:05:57;;;;;;;9.40;3.45;;;;;;;26.79;41.17;101224.44;5012040;28;20025;-87
2022/05/16 10:08:41;;;;;;;16.15;4.35;;;;;;;26.88;41.17;101235.63;5014177;28;20058;-87
2022/05/16 10:11:15;;;;;;;11.17;3.60;;;;;;;26.64;41.41;101233.97;4996358;28;20053;-87
2022/05/16 10:13:41;;;;;;;10.68;3.95;;;;;;;26.12;42.36;101233.47;4994901;28;20107;-87
2022/05/16 10:16:09;;;;;;;10.43;3.97;;;;;;;25.67;43.55;101234.91;5014470;28;20041;-87
2022/05/16 10:19:05;;;;;;;9.07;3.13;;;;;;;25.35;44.89;101239.44;5014310;28;20033;-87
2022/05/16 10:21:40;;;;;;;10.90;3.50;;;;;;;24.78;48.39;101270.06;4990866;28;20493;-87
2022/05/16 10:24:08;;;;;;;12.57;3.10;;;;;;;23.68;52.54;101281.16;4995065;28;20128;-84
2022/05/16 10:26:41;;;;;;;11.95;3.63;;;;;;;22.75;59.20;101284.72;4979868;28;20034;-85
2022/05/16 10:29:12;;;;;;;13.82;3.70;;;;;;;21.84;63.71;101293.16;4996493;28;20025;-85
2022/05/16 10:34:50;;;;;;;12.70;3.53;;;;;;;20.92;67.67;101313.34;5014472;28;20095;-84
2022/05/16 10:37:16;;;;;;;8.02;3.70;;;;;;;21.00;68.34;101316.38;4996145;28;20030;-84
2022/05/16 10:39:48;;;;;;;11.98;3.80;;;;;;;21.03;69.57;101313.06;4979925;28;20049;-84
2022/05/16 10:42:24;;;;;;;8.23;3.63;;;;;;;21.54;64.78;101325.25;4995873;28;20124;-83
2022/05/16 10:44:52;;;;;;;10.10;4.17;;;;;;;22.46;62.21;101326.13;5013633;28;20025;-83
2022/05/16 10:47:29;;;;;;;15.32;4.03;;;;;;;23.33;59.43;101319.19;4996196;28;20034;-82
2022/05/16 10:50:09;;;;;;;13.32;4.00;;;;;;;24.30;57.02;101328.41;4996527;28;20038;-83
2022/05/16 10:52:43;;;;;;;9.85;3.95;;;;;;;24.73;53.31;101319.25;4995763;28;20110;-84
2022/05/16 10:55:08;;;;;;;11.35;3.83;;;;;;;25.04;52.89;101331.56;4995716;28;20394;-84
2022/05/16 10:57:55;;;;;;;16.53;4.30;;;;;;;24.87;51.87;101331.28;5013687;28;20026;-84
2022/05/16 11:00:40;;;;;;;11.27;4.30;;;;;;;24.97;51.52;101325.56;5013716;28;20033;-84
2022/05/16 11:03:33;;;;;;;11.30;4.28;;;;;;;25.07;50.85;101351.50;4996005;28;20024;-83
2022/05/16 11:06:13;;;;;;;16.60;4.50;;;;;;;24.64;50.23;101339.38;4996290;28;20065;-83
2022/05/16 11:08:52;;;;;;;8.10;4.60;;;;;;;24.48;50.73;101335.94;4996002;28;20026;-84
2022/05/16 11:11:50;;;;;;;12.85;4.30;;;;;;;24.30;51.48;101347.81;4995978;28;20469;-84
2022/05/16 11:14:21;;;;;;;9.10;4.60;;;;;;;24.27;51.36;101353.97;4996392;28;20101;-84
2022/05/16 11:16:50;;;;;;;15.60;4.97;;;;;;;24.28;51.31;101347.31;5013859;28;20109;-83
2022/05/16 11:19:43;;;;;;;18.30;5.03;;;;;;;24.40;51.13;101350.47;5013523;28;20029;-83
2022/05/16 11:22:41;;;;;;;9.23;4.37;;;;;;;24.43;51.46;101340.72;4996955;28;20118;-83
2022/05/16 11:25:18;;;;;;;14.80;5.70;;;;;;;24.45;51.45;101344.88;4999372;28;20456;-84
2022/05/16 11:27:56;;;;;;;13.93;5.70;;;;;;;24.24;52.22;101347.09;5017484;28;20042;-83
2022/05/16 11:30:34;;;;;;;18.27;6.18;;;;;;;23.77;57.43;101351.44;5017409;28;20114;-84
2022/05/16 11:33:28;;;;;;;18.40;5.85;;;;;;;23.50;56.78;101346.44;5017209;28;20029;-84
2022/05/16 11:36:01;;;;;;;13.33;6.53;;;;;;;23.75;58.70;101351.72;4999725;28;20029;-84
2022/05/16 11:39:17;;;;;;;15.60;5.85;;;;;;;24.27;56.61;101353.97;5017072;28;20030;-83
2022/05/16 11:42:15;;;;;;;12.15;5.22;;;;;;;24.42;53.04;101358.50;4967050;28;20037;-84
2022/05/16 11:45:01;;;;;;;10.70;5.45;;;;;;;24.08;53.13;101368.59;5000973;28;20121;-84
2022/05/16 11:47:41;;;;;;;12.55;5.57;;;;;;;23.80;54.00;101357.22;4999241;28;20073;-84
2022/05/16 11:50:26;;;;;;;10.83;5.10;;;;;;;23.58;54.35;101366.03;5017239;28;20117;-84
2022/05/16 11:53:01;;;;;;;14.77;5.05;;;;;;;23.43;54.51;101364.22;4998782;28;20034;-84
2022/05/16 12:01:03;;;;;;;9.23;6.00;;;;;;;23.19;56.13;101374.38;5002350;28;20064;-83
2022/05/16 12:03:41;;;;;;;15.17;7.50;;;;;;;22.93;58.33;101380.88;4998928;28;20036;-83
2022/05/16 12:06:32;;;;;;;14.05;8.60;;;;;;;22.28;60.55;101396.63;4998945;28;20034;-84
2022/05/16 12:09:25;;;;;;;14.65;9.20;;;;;;;22.13;60.94;101390.06;5016693;28;20030;-83